Ouray, Colorado
Current Conditions -  °F | °C
As of 10:55 PM on Saturday 22 Nov 2014 (Local Time) from KTEX Reporting Station
Overcast Overcast  
Wind Chill: 28°   Ceiling: 4000
Heat Index: 35°   Visibility: 10mi
Dew Point: 21°   Wind: 8mph
Humidity: 58%   Direction: 220°SW
Pressure: 29.87"   Gusts: 23mph
Location:  38.02°N, 107.67°W
Report Text: KTEX 230555Z AUTO 22007G20KT 200V260 10SM OVC040 02/M06 A2987 RMK AO2 T00161059 10037 20000
Loading
Personal Weather Stations






























Interactive Weather Map New forecast layout! Learn more

10-Day Weather Forecast

Advertisements
Track Severe Weather on mobile